Terminal Aerodrome Forecast
Issued by NWS Louisville, KY

Home | Current Version | Previous Version | Text Only | Print | Product List | Glossary On
Versions: 1 2 3 4 5 6 7 8 9 10 11 12 13 14 15 16 17
152
FTUS43 KLMK 221720
TAFLEX
TAF
KLEX 221720Z 2218/2318 23010G18KT P6SM VCTS SCT035CB BKN090
     FM222000 24011G19KT P6SM -SHRA VCTS SCT035CB BKN090
      TEMPO 2220/2224 1 1/2SM TSRA BKN035CB
     FM230200 26005KT P6SM SCT015 BKN050
     FM230600 35004KT P6SM BKN025
     FM231300 36006KT P6SM SCT045=

USA.gov is the U.S. government's official web portal to all federal, state and local government web resources and services.